Time;durP1;ratioP1;P1;durP2;ratioP2;P2;SDS_P1;SDS_P2;PMS_P1;PMS_P2;Temp;Humidity;BMP_temperature;BMP_pressure;BME280_temperature;BME280_humidity;BME280_pressure;Samples;Min_cycle;Max_cycle;Signal;HPM_P1;HPM_P2
2021/09/10 00:00:19;;;;;;;25.30;15.50;;;;;;;12.51;67.25;98713.83;457082;1203;112855;-41
2021/09/10 00:10:40;;;;;;;26.30;16.30;;;;;;;12.49;67.30;98713.38;456931;1203;107689;-42
2021/09/10 00:20:44;;;;;;;24.10;15.40;;;;;;;12.40;67.58;98715.98;457012;1203;97783;-41
2021/09/10 00:30:47;;;;;;;26.20;15.80;;;;;;;12.30;67.86;98720.27;456926;1195;108613;-43
2021/09/10 00:40:51;;;;;;;20.00;13.30;;;;;;;12.25;67.88;98722.45;457031;1203;97789;-43
2021/09/10 00:50:56;;;;;;;21.00;14.50;;;;;;;12.19;68.03;98726.59;456763;1195;111946;-42
2021/09/10 01:01:00;;;;;;;27.80;15.00;;;;;;;12.10;68.17;98725.20;456922;1203;108423;-43
2021/09/10 01:11:04;;;;;;;21.90;14.30;;;;;;;11.99;68.36;98721.55;457225;1200;98978;-44
2021/09/10 01:21:08;;;;;;;27.40;14.10;;;;;;;11.88;68.51;98720.36;457002;1203;108902;-44
2021/09/10 01:31:11;;;;;;;21.30;12.90;;;;;;;11.90;68.64;98715.39;456665;1204;98996;-42
2021/09/10 01:41:15;;;;;;;22.80;12.90;;;;;;;11.94;68.63;98712.77;456794;1203;111481;-42
2021/09/10 01:51:27;;;;;;;18.30;11.10;;;;;;;11.92;68.57;98712.89;457027;1203;108237;-42
2021/09/10 02:01:31;;;;;;;20.70;13.30;;;;;;;11.88;68.88;98714.29;457486;1196;99046;-43
2021/09/10 02:11:35;;;;;;;20.30;14.00;;;;;;;11.83;68.98;98714.80;456899;1203;98597;-43
2021/09/10 02:21:41;;;;;;;23.90;13.00;;;;;;;11.78;69.11;98716.51;456635;1195;108332;-42
2021/09/10 02:31:45;;;;;;;21.00;12.50;;;;;;;11.69;69.48;98713.52;456903;1197;98731;-42
2021/09/10 02:41:49;;;;;;;22.60;12.60;;;;;;;11.66;69.75;98719.92;456907;1203;108605;-42
2021/09/10 02:51:53;;;;;;;27.60;14.80;;;;;;;11.59;69.96;98710.30;456819;1200;97772;-42
2021/09/10 03:01:56;;;;;;;18.00;11.80;;;;;;;11.58;70.06;98706.78;457051;1204;112242;-42
2021/09/10 03:12:01;;;;;;;18.40;11.60;;;;;;;11.70;70.13;98704.54;456962;1195;108447;-42
2021/09/10 03:22:05;;;;;;;23.60;14.60;;;;;;;11.70;70.41;98706.59;457228;1204;97788;-43
2021/09/10 03:32:09;;;;;;;19.40;12.80;;;;;;;11.58;70.78;98703.97;456852;1203;108578;-42
2021/09/10 03:42:13;;;;;;;20.70;12.70;;;;;;;11.58;71.02;98703.02;456770;1198;99129;-42
2021/09/10 03:52:17;;;;;;;25.50;14.10;;;;;;;11.59;71.03;98707.50;457098;1200;112367;-42
2021/09/10 04:02:20;;;;;;;26.60;15.10;;;;;;;11.40;71.10;98704.17;457042;1200;107980;-42
2021/09/10 04:12:24;;;;;;;23.30;14.60;;;;;;;11.24;71.41;98701.77;456928;1196;98618;-42
2021/09/10 04:22:28;;;;;;;26.40;14.00;;;;;;;11.15;71.84;98706.48;456779;1197;108711;-42
2021/09/10 04:32:32;;;;;;;19.10;13.20;;;;;;;11.17;71.84;98711.90;457092;1203;97773;-41
2021/09/10 04:42:36;;;;;;;22.80;13.90;;;;;;;11.25;71.73;98710.69;457052;1195;112032;-42
2021/09/10 04:52:40;;;;;;;20.70;14.50;;;;;;;11.27;71.88;98710.52;456860;1203;108531;-42
2021/09/10 05:02:43;;;;;;;22.00;13.20;;;;;;;11.41;72.06;98705.37;456996;1195;99001;-43
2021/09/10 05:12:48;;;;;;;48.40;17.10;;;;;;;11.66;72.35;98709.92;456854;1203;108472;-43
2021/09/10 05:32:55;;;;;;;20.10;13.50;;;;;;;14.36;71.00;98719.90;457030;1203;112108;-42
2021/09/10 05:42:58;;;;;;;26.90;14.10;;;;;;;15.72;69.52;98722.09;456891;1195;108078;-42
2021/09/10 05:53:02;;;;;;;19.30;11.60;;;;;;;17.09;67.88;98727.06;456983;1203;98081;-41
2021/09/10 06:03:06;;;;;;;28.90;11.50;;;;;;;18.36;65.91;98726.30;456995;1195;108437;-41
2021/09/10 06:13:11;;;;;;;19.30;10.90;;;;;;;19.14;64.06;98732.35;457022;1195;98874;-41
2021/09/10 06:23:14;;;;;;;22.80;10.50;;;;;;;19.88;62.47;98735.20;457185;1200;111653;-42
2021/09/10 06:33:18;;;;;;;15.80;9.90;;;;;;;20.61;60.84;98737.71;456827;1203;108364;-41
2021/09/10 06:43:21;;;;;;;14.60;8.50;;;;;;;21.43;59.26;98745.73;456898;1200;99765;-41
2021/09/10 06:53:26;;;;;;;22.60;9.80;;;;;;;22.02;57.55;98754.94;456938;1203;108465;-42
2021/09/10 07:03:29;;;;;;;24.70;10.00;;;;;;;22.17;55.30;98764.34;456851;1200;98625;-41
2021/09/10 07:13:34;;;;;;;23.10;9.50;;;;;;;22.22;53.47;98773.43;456686;1203;112587;-41
2021/09/10 07:23:39;;;;;;;19.50;8.80;;;;;;;22.18;52.64;98776.92;456530;1203;108582;-45
2021/09/10 07:33:43;;;;;;;27.70;10.30;;;;;;;22.19;52.05;98771.39;456942;1195;98997;-43
2021/09/10 07:53:50;;;;;;;27.40;8.80;;;;;;;22.38;51.83;98775.98;456853;1195;98994;-42
2021/09/10 08:03:54;;;;;;;34.60;8.30;;;;;;;23.22;50.28;98780.61;456623;1198;112057;-41
2021/09/10 08:13:58;;;;;;;20.90;7.60;;;;;;;23.79;49.13;98787.48;456747;1196;108507;-42
2021/09/10 08:24:02;;;;;;;15.40;5.90;;;;;;;24.41;48.74;98796.09;456630;1203;99142;-43
2021/09/10 08:34:07;;;;;;;15.70;5.40;;;;;;;24.75;47.64;98793.34;456812;1203;108856;-43
2021/09/10 09:04:22;;;;;;;15.20;4.60;;;;;;;25.10;44.48;98790.34;456267;1203;108421;-42
2021/09/10 09:14:41;;;;;;;13.50;4.00;;;;;;;25.12;43.07;98784.17;456905;1203;97756;-42
2021/09/10 09:24:45;;;;;;;8.00;3.10;;;;;;;25.20;41.99;98780.33;457072;1195;108713;-43
2021/09/10 09:34:50;;;;;;;9.30;2.90;;;;;;;25.48;41.73;98776.11;456735;1197;98970;-43
2021/09/10 09:45:14;;;;;;;12.60;3.50;;;;;;;25.55;41.03;98768.59;456852;1203;112212;-41
2021/09/10 09:55:19;;;;;;;6.80;3.20;;;;;;;25.64;39.63;98764.32;457108;1203;108682;-42
2021/09/10 10:05:26;;;;;;;8.20;3.30;;;;;;;25.57;38.30;98757.52;456885;1196;99128;-41
2021/09/10 10:15:31;;;;;;;12.70;3.30;;;;;;;25.41;36.48;98756.39;456850;1203;108446;-43
2021/09/10 10:25:38;;;;;;;9.50;3.10;;;;;;;25.59;37.36;98756.52;456877;1198;99024;-45
2021/09/10 10:35:40;;;;;;;;;;;;;;;25.61;36.82;98751.49;456941;1196;111763;-42
2021/09/10 10:46:03;;;;;;;9.80;3.30;;;;;;;25.83;37.42;98751.77;457012;1203;108629;-42
2021/09/10 10:56:39;;;;;;;15.30;3.60;;;;;;;25.79;35.66;98747.20;456964;1203;99032;-42
2021/09/10 11:06:43;;;;;;;16.70;3.70;;;;;;;25.66;35.94;98744.77;457013;1197;112017;-42
2021/09/10 11:16:47;;;;;;;9.40;2.90;;;;;;;25.78;36.12;98744.91;456286;1197;108439;-42
2021/09/10 11:26:50;;;;;;;13.30;4.90;;;;;;;25.64;34.95;98741.65;457032;1196;99266;-41
2021/09/10 11:36:59;;;;;;;7.60;3.80;;;;;;;25.62;35.21;98733.21;456886;1203;108756;-41
2021/09/10 11:47:03;;;;;;;9.40;3.10;;;;;;;25.71;35.32;98728.84;457276;1196;99142;-41
2021/09/10 11:57:18;;;;;;;9.30;3.00;;;;;;;25.71;34.97;98721.18;457022;1203;112261;-42
2021/09/10 12:07:27;;;;;;;7.40;3.70;;;;;;;25.65;35.20;98709.89;456801;1197;108460;-42
2021/09/10 12:27:33;;;;;;;8.70;2.80;;;;;;;25.44;35.49;98693.95;457177;1203;108430;-41
2021/09/10 12:37:37;;;;;;;8.40;3.40;;;;;;;25.38;35.03;98685.82;456976;1203;98999;-42
2021/09/10 12:47:40;;;;;;;13.70;3.60;;;;;;;25.17;33.90;98678.77;456811;1203;111867;-41
2021/09/10 12:57:44;;;;;;;7.50;3.20;;;;;;;25.05;34.53;98677.08;456810;1202;108300;-42
2021/09/10 13:07:48;;;;;;;7.50;3.40;;;;;;;24.99;34.75;98676.58;456253;1197;99000;-42
2021/09/10 13:27:55;;;;;;;9.80;3.80;;;;;;;24.95;35.25;98670.14;456770;1195;98574;-42
2021/09/10 13:37:59;;;;;;;5.20;2.80;;;;;;;24.80;34.85;98668.04;457054;1203;111716;-41
2021/09/10 13:48:02;;;;;;;8.50;3.20;;;;;;;24.73;35.44;98664.79;456881;1203;108465;-42
2021/09/10 13:58:06;;;;;;;17.60;3.80;;;;;;;24.78;35.77;98667.86;456928;1203;99153;-42
2021/09/10 14:08:10;;;;;;;12.10;3.10;;;;;;;24.78;35.51;98660.98;456962;1203;108419;-42
2021/09/10 14:18:14;;;;;;;6.50;3.00;;;;;;;24.73;35.43;98659.60;456747;1203;98608;-41
2021/09/10 14:28:17;;;;;;;5.80;2.40;;;;;;;24.64;35.69;98655.46;456828;1195;112465;-41
2021/09/10 14:38:21;;;;;;;4.50;3.20;;;;;;;24.59;36.07;98654.38;456803;1203;108688;-43
2021/09/10 14:48:25;;;;;;;4.20;3.20;;;;;;;24.51;35.91;98656.81;457284;1195;99056;-41
2021/09/10 15:08:31;;;;;;;4.60;3.10;;;;;;;24.33;36.25;98662.20;457007;1195;98604;-42
2021/09/10 15:18:35;;;;;;;3.70;2.60;;;;;;;24.20;36.62;98656.75;456664;1196;111968;-42
2021/09/10 15:28:39;;;;;;;3.70;2.70;;;;;;;24.05;36.48;98657.75;456971;1197;108345;-43
2021/09/10 15:38:43;;;;;;;38.60;5.10;;;;;;;23.88;36.66;98657.02;457058;1195;99026;-41
2021/09/10 15:48:47;;;;;;;16.30;3.40;;;;;;;23.68;36.91;98654.92;456944;1203;108227;-44
2021/09/10 15:58:51;;;;;;;27.10;3.80;;;;;;;23.45;37.12;98647.85;457032;1203;98718;-41
2021/09/10 16:08:54;;;;;;;8.70;3.70;;;;;;;23.20;37.35;98643.67;456812;1203;112067;-40
2021/09/10 16:18:58;;;;;;;45.90;5.70;;;;;;;22.89;37.87;98640.73;456815;1203;108398;-43
2021/09/10 16:29:01;;;;;;;34.20;5.30;;;;;;;22.48;38.66;98640.36;457117;1202;98580;-42
2021/09/10 16:39:05;;;;;;;10.50;4.60;;;;;;;22.04;39.74;98644.35;456816;1195;108639;-41
2021/09/10 16:49:08;;;;;;;10.30;4.80;;;;;;;21.53;40.86;98651.42;457102;1203;98997;-41
2021/09/10 16:59:12;;;;;;;11.40;5.10;;;;;;;20.96;41.71;98653.63;457095;1203;112049;-41
2021/09/10 17:09:15;;;;;;;13.80;5.80;;;;;;;20.33;42.75;98651.54;456370;1198;108675;-43
2021/09/10 17:19:19;;;;;;;13.80;7.80;;;;;;;19.74;44.00;98656.29;456969;1203;98641;-43
2021/09/10 17:29:22;;;;;;;27.10;8.70;;;;;;;19.14;45.05;98665.23;456864;1203;107372;-42
2021/09/10 17:49:29;;;;;;;17.20;7.70;;;;;;;18.18;46.98;98684.73;457077;1203;112146;-42
2021/09/10 17:59:33;;;;;;;20.70;10.00;;;;;;;17.69;48.00;98695.35;456883;1203;108533;-42
2021/09/10 18:09:38;;;;;;;35.20;19.10;;;;;;;17.10;49.00;98698.55;456942;1195;98997;-42
2021/09/10 18:19:42;;;;;;;51.90;28.80;;;;;;;16.65;50.15;98702.05;456903;1203;108573;-41
2021/09/10 18:29:46;;;;;;;55.00;28.90;;;;;;;16.43;50.90;98706.58;456821;1203;99128;-42
2021/09/10 18:39:49;;;;;;;74.10;52.50;;;;;;;16.41;51.77;98707.33;456948;1203;112077;-41
2021/09/10 18:49:53;;;;;;;62.70;40.60;;;;;;;16.52;52.39;98714.05;456986;1195;106884;-41
2021/09/10 18:59:56;;;;;;;61.00;35.50;;;;;;;16.69;52.62;98712.80;457018;1196;98994;-42
2021/09/10 19:10:00;;;;;;;52.60;27.90;;;;;;;16.54;53.00;98714.96;456888;1200;108480;-42
2021/09/10 19:20:06;;;;;;;51.90;30.50;;;;;;;16.48;53.33;98708.88;456907;1200;99026;-42
2021/09/10 19:30:11;;;;;;;43.20;28.20;;;;;;;16.46;53.72;98712.77;456543;1203;112179;-43
2021/09/10 19:40:15;;;;;;;43.40;28.90;;;;;;;16.48;54.04;98708.39;456413;1203;108411;-43
2021/09/10 19:50:18;;;;;;;46.30;28.80;;;;;;;16.46;54.15;98709.35;456971;1203;99018;-42
2021/09/10 20:00:22;;;;;;;49.50;29.30;;;;;;;16.19;54.77;98700.99;457008;1200;108616;-42
2021/09/10 20:10:26;;;;;;;48.90;24.90;;;;;;;16.12;55.19;98702.04;456976;1200;98951;-42
2021/09/10 20:30:32;;;;;;;37.50;25.60;;;;;;;15.68;56.37;98699.66;456216;1204;108391;-43
2021/09/10 20:40:36;;;;;;;40.30;27.00;;;;;;;15.46;57.00;98700.87;456864;1203;98628;-40
2021/09/10 21:00:44;;;;;;;48.30;29.50;;;;;;;15.12;58.10;98712.19;457164;1200;99278;-42
2021/09/10 21:10:48;;;;;;;40.40;27.00;;;;;;;15.05;58.51;98708.84;456865;1203;112327;-41
2021/09/10 21:20:52;;;;;;;45.50;32.70;;;;;;;14.84;59.28;98707.95;456499;1197;108213;-42
2021/09/10 21:30:56;;;;;;;53.60;38.30;;;;;;;14.48;60.71;98712.98;457034;1196;99048;-42
2021/09/10 21:41:00;;;;;;;80.40;53.20;;;;;;;14.29;61.30;98711.92;456847;1205;98600;-42
2021/09/10 21:51:04;;;;;;;43.20;27.90;;;;;;;14.19;61.61;98714.59;456790;1204;108478;-42
2021/09/10 22:01:07;;;;;;;67.10;44.80;;;;;;;14.04;62.22;98720.08;456906;1203;99813;-40
2021/09/10 22:11:12;;;;;;;55.80;36.30;;;;;;;13.89;62.92;98718.56;456857;1204;97776;-41
2021/09/10 22:21:16;;;;;;;44.60;24.70;;;;;;;13.88;62.99;98714.41;456891;1200;108664;-41
2021/09/10 22:31:19;;;;;;;39.60;24.20;;;;;;;13.94;62.91;98717.94;456870;1195;97760;-43
2021/09/10 22:41:24;;;;;;;51.50;27.50;;;;;;;13.75;63.58;98713.31;456765;1199;108427;-43
2021/09/10 22:51:27;;;;;;;37.60;24.80;;;;;;;13.64;63.86;98716.95;457153;1205;99000;-42
2021/09/10 23:01:31;;;;;;;42.80;26.10;;;;;;;13.69;63.64;98716.21;456943;1195;112137;-42
2021/09/10 23:11:35;;;;;;;31.60;21.90;;;;;;;13.61;63.72;98718.03;456831;1204;108450;-41
2021/09/10 23:21:39;;;;;;;50.00;27.80;;;;;;;13.51;63.99;98721.73;457099;1195;99000;-43
2021/09/10 23:31:42;;;;;;;42.60;24.60;;;;;;;13.22;64.89;98721.48;456878;1200;108671;-42
2021/09/10 23:41:46;;;;;;;37.00;18.50;;;;;;;13.00;65.71;98718.91;456847;1200;97785;-41
